Bookmark and Share
Track history (hours):
 

Yang Mei Hu

Last reported at 2014-Apr-23 22:22 UTC. Time now 2014-Apr-24 04:20 UTC.
Position N 59°09' W 005°02'.

Length 245 m; draft 15.2 m.

Type: Tanker. MMSI: 413858000.

NotesDate/timePositionNaut miles runAvg speedWind from/ knotsBaromVisibWave heightAir tempDewpointWater temp
2014-Apr-23 22:22N 59°09' W 005°02'8 9.6
2014-Apr-23 21:30N 59°13' W 004°48'10 9.6
2014-Apr-23 20:27N 59°17' W 004°30'19 9.5
2014-Apr-23 18:29N 59°24' W 003°56'10 9.2
2014-Apr-23 17:25N 59°28' W 003°38'103 2.3
2014-Apr-21 20:33N 57°48' W 002°47'30 9.9
2014-Apr-21 17:31N 57°44' W 001°51'8 8.4
2014-Apr-21 16:33N 57°38' W 001°40'8 8.2
2014-Apr-21 15:33N 57°31' W 001°34'9 8.9
2014-Apr-21 14:33N 57°22' W 001°31'10 9.7
2014-Apr-21 13:33N 57°12' W 001°26'1110.4
2014-Apr-21 12:32N 57°02' W 001°22'1210.8
2014-Apr-21 11:23N 56°50' W 001°17'78 9.9
2014-Apr-21 03:31N 55°32' W 001°10'2010.0
2014-Apr-21 01:29N 55°12' W 001°08'1010.4
2014-Apr-21 00:32N 55°02' W 001°07'1010.1
2014-Apr-20 23:32N 54°52' W 001°07'9 9.5
2014-Apr-20 22:33N 54°43' W 001°07'6 5.5
2014-Apr-20 21:32N 54°37' W 001°10'0 0.0
2014-Apr-20 20:32N 54°37' W 001°10'0 0.0
2014-Apr-20 19:32N 54°37' W 001°10'0 0.0
2014-Apr-20 18:32N 54°37' W 001°10'0 0.0
2014-Apr-20 17:32N 54°37' W 001°10'0 0.0
2014-Apr-20 16:32N 54°37' W 001°10'0 0.0
2014-Apr-20 15:32N 54°37' W 001°10'0 0.0
2014-Apr-20 14:23N 54°37' W 001°10'0 0.0
2014-Apr-20 13:29N 54°37' W 001°10'0 0.0
2014-Apr-20 12:32N 54°37' W 001°10'0 0.0
2014-Apr-20 11:29N 54°37' W 001°10'0 0.0
2014-Apr-20 10:29N 54°37' W 001°10'0 0.0
2014-Apr-20 09:32N 54°37' W 001°10'0 0.0
2014-Apr-20 08:32N 54°37' W 001°10'0 0.0
2014-Apr-20 07:32N 54°37' W 001°10'0 0.0
2014-Apr-20 06:29N 54°37' W 001°10'0 0.0
2014-Apr-20 05:32N 54°37' W 001°10'0 0.0
2014-Apr-20 04:32N 54°37' W 001°10'0 0.0
2014-Apr-20 03:32N 54°37' W 001°10'0 0.0
2014-Apr-20 02:32N 54°37' W 001°10'0 0.0
2014-Apr-20 01:32N 54°37' W 001°10'0 0.0
2014-Apr-20 00:32N 54°37' W 001°10'0 0.0
2014-Apr-19 23:32N 54°37' W 001°10'0 0.0
2014-Apr-19 22:32N 54°37' W 001°10'1 0.6
2014-Apr-19 21:33N 54°38' W 001°10'7 6.7
2014-Apr-19 20:33N 54°43' W 001°02'7 6.7
2014-Apr-19 19:33N 54°40' W 000°51'8 7.7
2014-Apr-19 18:33N 54°37' W 000°39'8 7.6
2014-Apr-19 17:34N 54°35' W 000°27'8 7.8
2014-Apr-19 16:34N 54°30' W 000°16'8 8.4
2014-Apr-19 15:33N 54°25' W 000°04'9 9.1
2014-Apr-19 14:33N 54°18' E 000°05'1010.0
2014-Apr-19 13:33N 54°09' E 000°14'1010.3
2014-Apr-19 12:34N 54°01' E 000°24'1010.1
2014-Apr-19 11:33N 53°53' E 000°34'47 7.9
2014-Apr-19 05:33N 53°14' E 001°21'1010.2
2014-Apr-19 04:33N 53°08' E 001°34'1110.7
2014-Apr-19 03:34N 53°04' E 001°50'12 9.8
2014-Apr-19 02:18N 52°59' E 002°09'50 6.2
2014-Apr-18 18:21N 52°10' E 002°16'34 9.1
2014-Apr-18 14:33N 51°37' E 002°00'8 8.2
2014-Apr-18 13:33N 51°34' E 001°48'7 7.1
2014-Apr-18 12:33N 51°32' E 001°37'5 4.6
2014-Apr-18 11:31N 51°30' E 001°30'0 0.0
2014-Apr-18 10:31N 51°30' E 001°30'0 0.0
2014-Apr-18 09:28N 51°30' E 001°30'0 0.0
2014-Apr-18 07:28N 51°30' E 001°30'0 0.0
2014-Apr-18 06:31N 51°30' E 001°30'0 0.0
2014-Apr-18 05:31N 51°30' E 001°30'2 2.3
2014-Apr-18 04:34N 51°30' E 001°34'8 7.6
2014-Apr-18 03:34N 51°30' E 001°46'8 7.5
2014-Apr-18 02:33N 51°28' E 001°57'8 7.9
2014-Apr-18 01:33N 51°22' E 002°06'8 8.4
2014-Apr-18 00:33N 51°14' E 002°04'10 9.3
2014-Apr-17 23:30N 51°09' E 001°51'7 7.7
2014-Apr-17 22:34N 51°04' E 001°42'7 5.7
2014-Apr-17 21:23N 50°59' E 001°35'17 5.7
2014-Apr-17 18:22N 50°44' E 001°22'16 7.9
2014-Apr-17 16:21N 50°33' E 001°04'7 8.4
2014-Apr-17 15:34N 50°29' E 000°55'9 8.8
2014-Apr-17 14:33N 50°27' E 000°42'9 8.8
2014-Apr-17 13:32N 50°24' E 000°28'1111.1
2014-Apr-17 12:32N 50°22' E 000°11'4113.5
2014-Apr-17 09:27N 50°11' W 000°51'1414.9
2014-Apr-17 08:33N 50°07' W 001°12'1414.6
2014-Apr-17 07:33N 50°03' W 001°34'1813.1
2014-Apr-17 06:13N 49°59' W 002°00'811.3
2014-Apr-17 05:31N 49°57' W 002°12'1010.1
2014-Apr-17 04:33N 49°54' W 002°27'137 7.0
2014-Apr-16 09:06N 50°48' W 005°44'  

Dump ship's entire track history

sailing weather and tide predictions

Yang Mei Hu — BQCG — position and weather